Time;durP1;ratioP1;P1;durP2;ratioP2;P2;SDS_P1;SDS_P2;PMS_P1;PMS_P2;Temp;Humidity;BMP_temperature;BMP_pressure;BME280_temperature;BME280_humidity;BME280_pressure;Samples;Min_cycle;Max_cycle;Signal;HPM_P1;HPM_P2
2022/03/19 00:00:05;;;;;;;11.18;5.60;;;0.50;99.90;;;;;;5098296;28;20024;-77
2022/03/19 00:02:33;;;;;;;13.60;6.15;;;0.50;99.90;;;;;;5097660;28;20031;-77
2022/03/19 00:05:01;;;;;;;14.10;6.57;;;0.50;99.90;;;;;;5097476;28;20024;-77
2022/03/19 00:07:28;;;;;;;12.50;6.13;;;0.50;99.90;;;;;;5099419;28;20055;-77
2022/03/19 00:09:57;;;;;;;15.00;6.25;;;0.50;99.90;;;;;;5098310;28;20439;-77
2022/03/19 00:12:24;;;;;;;15.15;6.30;;;0.50;99.90;;;;;;5099450;28;20024;-77
2022/03/19 00:14:51;;;;;;;13.13;6.00;;;0.40;99.90;;;;;;5099265;28;20024;-76
2022/03/19 00:17:19;;;;;;;19.23;6.68;;;0.40;99.90;;;;;;5098066;28;20024;-77
2022/03/19 00:19:46;;;;;;;13.55;5.22;;;0.40;99.90;;;;;;5099636;28;20043;-77
2022/03/19 00:22:14;;;;;;;16.17;5.80;;;0.40;99.90;;;;;;5093702;28;20049;-77
2022/03/19 00:24:41;;;;;;;12.70;5.90;;;0.30;99.90;;;;;;5061101;28;20422;-77
2022/03/19 00:27:09;;;;;;;15.15;5.70;;;0.30;99.90;;;;;;5078323;28;20101;-77
2022/03/19 00:29:36;;;;;;;10.15;5.03;;;0.30;99.90;;;;;;5078310;28;20424;-77
2022/03/19 00:32:03;;;;;;;11.82;5.15;;;0.20;99.90;;;;;;5077839;28;20024;-77
2022/03/19 00:34:32;;;;;;;10.25;4.97;;;0.20;99.90;;;;;;5077950;28;20104;-77
2022/03/19 00:37:00;;;;;;;9.60;5.53;;;0.20;99.90;;;;;;5077626;28;20037;-77
2022/03/19 00:39:27;;;;;;;12.27;4.65;;;0.20;99.90;;;;;;5059723;28;20078;-77
2022/03/19 00:41:55;;;;;;;10.55;4.88;;;0.20;99.90;;;;;;5077471;28;20019;-77
2022/03/19 00:44:22;;;;;;;8.18;5.03;;;0.20;99.90;;;;;;5059728;28;20115;-77
2022/03/19 00:46:50;;;;;;;11.25;4.80;;;0.20;99.90;;;;;;5059886;28;20032;-77
2022/03/19 00:49:18;;;;;;;13.85;5.65;;;0.10;99.90;;;;;;5078187;28;20020;-77
2022/03/19 00:51:45;;;;;;;15.30;5.50;;;0.10;99.90;;;;;;5078400;28;20107;-77
2022/03/19 00:54:15;;;;;;;13.25;5.68;;;0.10;99.90;;;;;;5078211;28;20478;-77
2022/03/19 00:56:43;;;;;;;8.73;4.90;;;0.00;99.90;;;;;;5078144;28;20031;-77
2022/03/19 00:59:11;;;;;;;8.90;4.75;;;0.10;99.90;;;;;;5060206;28;20024;-77
2022/03/19 01:01:38;;;;;;;9.25;5.30;;;0.00;99.90;;;;;;5078429;28;20048;-77
2022/03/19 01:04:05;;;;;;;8.45;4.78;;;0.00;99.90;;;;;;5060286;28;20416;-77
2022/03/19 01:06:33;;;;;;;15.82;6.40;;;0.00;99.90;;;;;;5077712;28;20377;-77
2022/03/19 01:09:01;;;;;;;21.70;6.25;;;0.00;99.90;;;;;;5059577;28;20032;-77
2022/03/19 01:11:29;;;;;;;12.68;5.57;;;0.00;99.90;;;;;;5075297;28;20077;-77
2022/03/19 01:13:57;;;;;;;13.27;5.55;;;0.00;99.90;;;;;;5059236;28;20123;-77
2022/03/19 01:16:28;;;;;;;10.00;6.22;;;0.00;99.90;;;;;;5059224;28;20027;-77
2022/03/19 01:18:55;;;;;;;14.55;4.75;;;-0.10;99.90;;;;;;5077370;28;20027;-76
2022/03/19 01:21:23;;;;;;;10.45;4.93;;;-0.10;99.90;;;;;;5077265;28;20062;-76
2022/03/19 01:23:51;;;;;;;11.90;5.10;;;-0.10;99.90;;;;;;5076728;28;20119;-77
2022/03/19 01:26:18;;;;;;;12.27;4.95;;;-0.10;99.90;;;;;;5059263;28;20028;-77
2022/03/19 01:28:45;;;;;;;12.20;4.90;;;-0.20;99.90;;;;;;5077303;28;20017;-77
2022/03/19 01:31:13;;;;;;;12.43;5.13;;;-0.20;99.90;;;;;;5078089;28;20031;-77
2022/03/19 01:33:41;;;;;;;10.48;5.35;;;-0.20;99.90;;;;;;5075628;28;20032;-77
2022/03/19 01:36:08;;;;;;;9.93;4.97;;;-0.20;99.90;;;;;;5077533;28;20028;-77
2022/03/19 01:38:37;;;;;;;9.68;4.55;;;-0.30;99.90;;;;;;5059670;28;20025;-77
2022/03/19 01:41:04;;;;;;;11.90;5.20;;;-0.30;99.90;;;;;;5077949;28;20020;-77
2022/03/19 01:43:31;;;;;;;13.82;5.05;;;-0.30;99.90;;;;;;5059693;28;20097;-77
2022/03/19 01:45:59;;;;;;;12.60;5.13;;;-0.40;99.90;;;;;;5059700;28;20021;-77
2022/03/19 01:48:27;;;;;;;8.68;4.50;;;-0.40;99.90;;;;;;5077347;28;20034;-77
2022/03/19 01:50:54;;;;;;;11.60;5.78;;;-0.40;99.90;;;;;;5076671;28;20333;-77
2022/03/19 01:53:22;;;;;;;13.20;5.65;;;-0.50;99.90;;;;;;5076505;28;20021;-77
2022/03/19 01:55:50;;;;;;;10.98;5.13;;;-0.50;99.90;;;;;;5058827;28;20177;-77
2022/03/19 01:58:17;;;;;;;13.25;6.20;;;-0.50;99.90;;;;;;5076903;28;20017;-77
2022/03/19 02:00:45;;;;;;;15.77;6.00;;;-0.50;99.90;;;;;;5058902;28;20078;-77
2022/03/19 02:03:13;;;;;;;14.82;6.65;;;-0.50;99.90;;;;;;5076418;28;20028;-77
2022/03/19 02:05:41;;;;;;;11.70;5.22;;;-0.50;99.90;;;;;;5076523;28;20105;-77
2022/03/19 02:08:08;;;;;;;12.23;5.43;;;-0.60;99.90;;;;;;5076261;28;20070;-77
2022/03/19 02:10:36;;;;;;;14.88;6.32;;;-0.60;99.90;;;;;;5058542;28;20028;-77
2022/03/19 02:13:03;;;;;;;13.57;5.85;;;-0.60;99.90;;;;;;5077234;28;20103;-77
2022/03/19 02:15:31;;;;;;;16.10;6.88;;;-0.60;99.90;;;;;;5077641;28;20013;-77
2022/03/19 02:17:58;;;;;;;12.45;6.20;;;-0.60;99.90;;;;;;5061563;28;20096;-77
2022/03/19 02:20:26;;;;;;;14.10;5.70;;;-0.70;99.90;;;;;;5063350;28;20040;-77
2022/03/19 02:25:48;;;;;;;10.63;5.32;;;-0.70;99.90;;;;;;5081542;28;20078;-77
2022/03/19 02:28:16;;;;;;;11.50;5.05;;;-0.70;99.90;;;;;;5081295;28;20403;-77
2022/03/19 02:30:43;;;;;;;11.27;5.40;;;-0.70;99.90;;;;;;5063283;28;20027;-77
2022/03/19 02:33:11;;;;;;;11.45;5.25;;;-0.70;99.90;;;;;;5062200;28;20025;-77
2022/03/19 02:35:38;;;;;;;9.30;4.82;;;-0.70;99.90;;;;;;5062365;28;20031;-77
2022/03/19 02:38:05;;;;;;;12.55;5.05;;;-0.70;99.90;;;;;;5079848;28;20024;-77
2022/03/19 02:40:33;;;;;;;10.90;5.35;;;-0.70;99.90;;;;;;5079917;28;20020;-77
2022/03/19 02:43:00;;;;;;;9.95;4.82;;;-0.70;99.90;;;;;;5080393;28;20025;-77
2022/03/19 02:45:27;;;;;;;9.48;4.50;;;-0.70;99.90;;;;;;5080446;28;20017;-77
2022/03/19 02:47:58;;;;;;;8.68;4.85;;;-0.70;99.90;;;;;;5061907;28;20435;-77
2022/03/19 02:50:30;;;;;;;10.55;5.07;;;-0.70;99.90;;;;;;5079985;28;20029;-77
2022/03/19 02:53:00;;;;;;;18.35;4.93;;;-0.70;99.90;;;;;;5079899;28;20069;-77
2022/03/19 02:55:36;;;;;;;15.25;5.03;;;-0.70;99.90;;;;;;5080403;28;20099;-77
2022/03/19 02:58:05;;;;;;;11.43;5.43;;;-0.70;99.90;;;;;;5080757;28;20024;-77
2022/03/19 03:00:34;;;;;;;13.50;5.30;;;-0.80;99.90;;;;;;5080495;28;20032;-77
2022/03/19 03:03:03;;;;;;;12.77;5.70;;;-0.80;99.90;;;;;;5080378;28;20023;-77
2022/03/19 03:05:33;;;;;;;11.38;5.32;;;-0.80;99.90;;;;;;5080299;28;20074;-77
2022/03/19 03:08:01;;;;;;;16.25;5.38;;;-0.80;99.90;;;;;;5080259;28;20012;-77
2022/03/19 03:10:29;;;;;;;10.57;5.07;;;-0.90;99.90;;;;;;5080510;28;20046;-77
2022/03/19 03:12:56;;;;;;;12.68;5.60;;;-0.90;99.90;;;;;;5062410;28;20035;-77
2022/03/19 03:15:24;;;;;;;7.97;5.25;;;-0.90;99.90;;;;;;5079756;28;20064;-77
2022/03/19 03:17:52;;;;;;;14.13;5.68;;;-0.90;99.90;;;;;;5061418;28;20020;-77
2022/03/19 03:20:23;;;;;;;9.43;4.47;;;-0.80;99.90;;;;;;5079688;28;20027;-77
2022/03/19 03:22:51;;;;;;;16.38;5.53;;;-0.80;99.90;;;;;;5079038;28;20048;-77
2022/03/19 03:25:20;;;;;;;10.30;5.32;;;-0.80;99.90;;;;;;5079351;28;20290;-77
2022/03/19 03:27:47;;;;;;;11.25;5.15;;;-0.80;99.90;;;;;;5079029;28;20021;-77
2022/03/19 03:30:15;;;;;;;10.27;5.20;;;-0.80;99.90;;;;;;5079192;28;20100;-77
2022/03/19 03:32:43;;;;;;;14.05;5.85;;;-0.80;99.90;;;;;;5079154;28;20020;-77
2022/03/19 03:35:11;;;;;;;13.38;5.63;;;-0.80;99.90;;;;;;5079394;28;20021;-77
2022/03/19 03:37:38;;;;;;;12.57;5.30;;;-0.80;99.90;;;;;;5061901;28;20024;-77
2022/03/19 03:40:07;;;;;;;17.15;6.68;;;-0.80;99.90;;;;;;5079663;28;20443;-77
2022/03/19 03:42:40;;;;;;;17.08;6.60;;;-0.80;99.90;;;;;;5079867;28;20102;-77
2022/03/19 03:45:08;;;;;;;15.25;6.43;;;-0.80;99.90;;;;;;5080133;28;20425;-77
2022/03/19 03:47:36;;;;;;;16.63;6.15;;;-0.80;99.90;;;;;;5061754;28;20040;-77
2022/03/19 03:50:04;;;;;;;15.70;6.65;;;-0.80;99.90;;;;;;5061695;28;20024;-77
2022/03/19 03:52:31;;;;;;;21.80;7.30;;;-0.80;99.90;;;;;;5061880;28;20025;-77
2022/03/19 03:54:58;;;;;;;21.35;7.15;;;-0.80;99.90;;;;;;5079975;28;20410;-77
2022/03/19 03:57:26;;;;;;;19.02;7.35;;;-0.70;99.90;;;;;;5060821;28;20025;-77
2022/03/19 03:59:53;;;;;;;26.60;7.70;;;-0.70;99.90;;;;;;5059266;28;20115;-77
2022/03/19 04:02:20;;;;;;;19.25;7.20;;;-0.70;99.90;;;;;;5078510;28;20074;-77
2022/03/19 04:04:47;;;;;;;24.52;7.90;;;-0.60;99.90;;;;;;5078871;28;20409;-77
2022/03/19 04:07:15;;;;;;;17.52;7.35;;;-0.70;99.90;;;;;;5078272;28;20020;-77
2022/03/19 04:09:42;;;;;;;20.92;8.02;;;-0.60;99.90;;;;;;5060027;28;20032;-77
2022/03/19 04:12:10;;;;;;;20.98;7.70;;;-0.60;99.90;;;;;;5060559;28;20064;-77
2022/03/19 04:14:38;;;;;;;30.00;9.85;;;-0.70;99.90;;;;;;5078704;28;20123;-77
2022/03/19 04:17:06;;;;;;;28.10;9.10;;;-0.70;99.90;;;;;;5078449;28;20032;-77
2022/03/19 04:19:34;;;;;;;23.63;8.18;;;-0.70;99.90;;;;;;5060767;28;20356;-77
2022/03/19 04:22:02;;;;;;;19.13;7.13;;;-0.60;99.90;;;;;;5061270;28;20078;-77
2022/03/19 04:24:29;;;;;;;16.65;6.88;;;-0.70;99.90;;;;;;5079176;28;20421;-77
2022/03/19 04:26:57;;;;;;;19.40;7.53;;;-0.70;99.90;;;;;;5079359;28;20421;-77
2022/03/19 04:29:25;;;;;;;22.50;7.57;;;-0.70;99.90;;;;;;5079262;28;20024;-77
2022/03/19 04:31:52;;;;;;;21.02;7.40;;;-0.70;99.90;;;;;;5079263;28;20407;-77
2022/03/19 04:34:19;;;;;;;21.75;7.75;;;-0.70;99.90;;;;;;5079169;28;20021;-77
2022/03/19 04:36:47;;;;;;;16.52;7.85;;;-0.80;99.90;;;;;;5078911;28;20024;-77
2022/03/19 04:39:14;;;;;;;21.67;7.75;;;-0.80;99.90;;;;;;5077959;28;20027;-77
2022/03/19 04:41:41;;;;;;;28.80;7.13;;;-0.80;99.90;;;;;;5077382;28;20367;-77
2022/03/19 04:44:09;;;;;;;19.10;8.18;;;-0.80;99.90;;;;;;5077507;28;20048;-77
2022/03/19 04:46:36;;;;;;;18.20;7.43;;;-0.90;99.90;;;;;;5077687;28;20021;-77
2022/03/19 04:49:04;;;;;;;14.15;7.35;;;-0.90;99.90;;;;;;5078020;28;20021;-77
2022/03/19 04:51:33;;;;;;;22.38;7.20;;;-0.90;99.90;;;;;;5059789;28;20323;-77
2022/03/19 04:54:02;;;;;;;22.02;7.18;;;-1.00;99.90;;;;;;5059607;28;20119;-77
2022/03/19 04:56:30;;;;;;;17.75;6.45;;;-1.00;99.90;;;;;;5077623;28;20024;-77
2022/03/19 04:58:59;;;;;;;22.08;8.10;;;-1.00;99.90;;;;;;5059382;28;20374;-77
2022/03/19 05:01:27;;;;;;;16.33;6.68;;;-1.00;99.90;;;;;;5077581;28;20024;-77
2022/03/19 05:03:55;;;;;;;20.15;8.75;;;-1.00;99.90;;;;;;5078033;28;20016;-77
2022/03/19 05:06:23;;;;;;;22.17;7.82;;;-1.10;99.90;;;;;;5078052;28;20050;-77
2022/03/19 05:11:36;;;;;;;23.30;6.90;;;-1.10;99.90;;;;;;5078409;28;20031;-77
2022/03/19 05:14:04;;;;;;;24.20;8.23;;;-1.10;99.90;;;;;;5077772;28;20031;-77
2022/03/19 05:16:32;;;;;;;20.92;7.57;;;-1.10;99.90;;;;;;5078083;28;20036;-77
2022/03/19 05:19:00;;;;;;;25.23;8.52;;;-1.10;99.90;;;;;;5077990;28;20119;-77
2022/03/19 05:21:27;;;;;;;25.48;8.82;;;-1.10;99.90;;;;;;5059727;28;20059;-77
2022/03/19 05:23:55;;;;;;;23.70;8.05;;;-1.10;99.90;;;;;;5076711;28;20433;-77
2022/03/19 05:26:23;;;;;;;24.58;9.73;;;-1.10;99.90;;;;;;5076788;28;20325;-77
2022/03/19 05:28:50;;;;;;;39.60;9.77;;;-1.00;99.90;;;;;;5077281;28;20389;-77
2022/03/19 05:31:18;;;;;;;28.58;9.45;;;-0.80;99.90;;;;;;5076653;28;20028;-77
2022/03/19 05:36:31;;;;;;;36.20;11.18;;;-0.20;99.90;;;;;;5077043;28;20501;-77
2022/03/19 05:38:58;;;;;;;36.53;11.95;;;0.00;99.90;;;;;;5058773;28;20059;-77
2022/03/19 05:41:25;;;;;;;31.42;10.88;;;0.20;99.90;;;;;;5077211;28;20017;-77
2022/03/19 05:43:53;;;;;;;43.17;13.50;;;0.40;99.90;;;;;;5076715;28;20383;-77
2022/03/19 05:46:20;;;;;;;26.55;10.98;;;0.50;99.90;;;;;;5077891;28;20050;-77
2022/03/19 05:48:47;;;;;;;37.10;11.13;;;0.60;99.90;;;;;;5077395;28;20024;-77
2022/03/19 05:51:14;;;;;;;44.88;12.43;;;0.60;99.90;;;;;;5059669;28;20057;-77
2022/03/19 05:53:43;;;;;;;32.50;11.65;;;0.70;99.90;;;;;;5059498;28;20024;-77
2022/03/19 05:56:11;;;;;;;41.60;13.77;;;0.80;99.90;;;;;;5077737;28;20101;-77
2022/03/19 05:58:39;;;;;;;36.03;12.73;;;0.80;99.90;;;;;;5059323;28;20119;-77
2022/03/19 06:01:06;;;;;;;32.67;12.13;;;0.80;99.90;;;;;;5059556;28;20020;-77
2022/03/19 06:03:33;;;;;;;27.88;11.35;;;0.90;99.90;;;;;;5059442;28;20050;-77
2022/03/19 06:06:01;;;;;;;31.52;11.43;;;1.00;99.90;;;;;;5058723;28;20031;-77
2022/03/19 06:08:29;;;;;;;36.25;13.30;;;1.00;99.90;;;;;;5058505;28;20111;-77
2022/03/19 06:10:56;;;;;;;40.58;11.77;;;1.00;99.90;;;;;;5058569;28;20144;-77
2022/03/19 06:13:24;;;;;;;32.88;10.70;;;1.10;99.90;;;;;;5058379;28;20069;-77
2022/03/19 06:15:51;;;;;;;31.05;10.75;;;1.10;99.90;;;;;;5058624;28;20069;-77
2022/03/19 06:18:18;;;;;;;42.85;11.93;;;1.20;99.90;;;;;;5058260;28;20032;-77
2022/03/19 06:20:46;;;;;;;35.92;11.65;;;1.20;99.90;;;;;;5076213;28;20017;-77
2022/03/19 06:23:13;;;;;;;36.08;10.90;;;1.20;99.90;;;;;;5076153;28;20127;-77
2022/03/19 06:25:43;;;;;;;38.08;11.73;;;1.30;99.90;;;;;;5058853;28;20063;-77
2022/03/19 06:28:10;;;;;;;31.90;10.18;;;1.30;99.90;;;;;;5058907;28;20029;-77
2022/03/19 06:30:38;;;;;;;30.25;10.52;;;1.30;99.90;;;;;;5077629;28;20058;-77
2022/03/19 06:33:06;;;;;;;38.35;12.02;;;1.30;99.90;;;;;;5077275;28;20359;-77
2022/03/19 06:38:20;;;;;;;33.10;10.95;;;1.40;99.90;;;;;;5077388;28;20027;-78
2022/03/19 06:40:47;;;;;;;31.73;11.02;;;1.40;99.90;;;;;;5059168;28;20036;-76
2022/03/19 06:43:15;;;;;;;32.65;10.82;;;1.50;99.90;;;;;;5076870;28;20095;-76
2022/03/19 06:45:43;;;;;;;28.05;10.43;;;1.50;99.90;;;;;;5077331;28;20017;-76
2022/03/19 06:48:10;;;;;;;29.33;10.85;;;1.50;99.90;;;;;;5076308;28;20016;-77
2022/03/19 06:50:38;;;;;;;39.72;11.80;;;1.60;99.90;;;;;;5075956;28;20103;-77
2022/03/19 06:53:06;;;;;;;39.83;11.80;;;1.60;99.90;;;;;;5076455;28;20021;-76
2022/03/19 06:55:33;;;;;;;28.30;10.50;;;1.60;99.90;;;;;;5076313;28;20027;-75
2022/03/19 06:58:00;;;;;;;35.85;12.85;;;1.70;99.90;;;;;;5075933;28;20066;-72
2022/03/19 07:00:28;;;;;;;28.33;10.60;;;1.70;99.90;;;;;;5058001;28;20024;-72
2022/03/19 07:02:56;;;;;;;30.92;10.90;;;1.80;99.90;;;;;;5058502;28;20036;-72
2022/03/19 07:05:28;;;;;;;33.55;11.23;;;1.80;99.90;;;;;;5080147;28;20069;-73
2022/03/19 07:07:57;;;;;;;40.58;11.63;;;1.90;99.90;;;;;;5079437;28;20021;-73
2022/03/19 07:10:24;;;;;;;46.50;11.40;;;1.90;99.90;;;;;;5079673;28;20032;-73
2022/03/19 07:12:56;;;;;;;33.85;11.13;;;2.00;99.90;;;;;;5080785;28;20032;-73
2022/03/19 07:15:28;;;;;;;32.22;10.00;;;2.00;99.90;;;;;;5080362;28;20409;-79
2022/03/19 07:17:57;;;;;;;29.52;11.63;;;2.10;99.90;;;;;;5062395;28;20024;-75
2022/03/19 07:20:25;;;;;;;48.17;11.80;;;2.10;99.90;;;;;;5080027;28;20020;-74
2022/03/19 07:23:05;;;;;;;36.90;11.60;;;2.20;99.90;;;;;;5080281;28;20052;-73
2022/03/19 07:25:37;;;;;;;29.60;10.65;;;2.30;99.90;;;;;;5080446;28;20020;-73
2022/03/19 07:28:09;;;;;;;34.30;11.32;;;2.30;99.90;;;;;;5080016;28;20048;-73
2022/03/19 07:30:37;;;;;;;28.80;10.98;;;2.40;99.90;;;;;;5079773;28;20031;-74
2022/03/19 07:33:06;;;;;;;36.72;11.27;;;2.50;99.90;;;;;;5078913;28;20027;-72
2022/03/19 07:35:34;;;;;;;35.42;11.93;;;2.60;99.90;;;;;;5078950;28;20048;-73
2022/03/19 07:38:02;;;;;;;28.77;11.38;;;2.70;99.90;;;;;;5078861;28;20028;-70
2022/03/19 07:43:15;;;;;;;32.47;11.65;;;2.90;99.90;;;;;;5078802;28;20028;-72
2022/03/19 07:45:43;;;;;;;35.53;10.52;;;3.00;99.90;;;;;;5061059;28;20021;-69
2022/03/19 07:48:11;;;;;;;27.42;9.80;;;3.00;99.90;;;;;;5078591;28;20020;-71
2022/03/19 07:50:39;;;;;;;31.63;10.15;;;3.10;99.90;;;;;;5060835;28;20436;-76
2022/03/19 07:53:08;;;;;;;27.05;8.98;;;3.20;99.90;;;;;;5078953;28;20466;-77
2022/03/19 07:55:35;;;;;;;31.40;9.60;;;3.20;99.90;;;;;;5079882;28;20024;-72
2022/03/19 07:58:04;;;;;;;27.33;9.13;;;3.30;99.90;;;;;;5079400;28;20021;-71
2022/03/19 08:00:32;;;;;;;30.98;8.85;;;3.40;99.90;;;;;;5079841;28;20107;-70
2022/03/19 08:03:00;;;;;;;25.45;8.57;;;3.40;99.90;;;;;;5079684;28;20017;-69
2022/03/19 08:05:27;;;;;;;26.52;9.55;;;3.50;99.90;;;;;;5061764;28;20024;-72
2022/03/19 08:07:54;;;;;;;22.70;8.77;;;3.60;99.90;;;;;;5079216;28;20350;-72
2022/03/19 08:10:24;;;;;;;26.10;7.72;;;3.70;99.90;;;;;;5061376;28;20120;-74
2022/03/19 08:13:06;;;;;;;25.90;7.78;;;3.70;99.90;;;;;;5078521;28;20352;-81
2022/03/19 08:15:34;;;;;;;27.90;7.47;;;3.80;99.90;;;;;;5059426;28;20309;-75
2022/03/19 08:18:02;;;;;;;21.08;6.20;;;3.90;99.90;;;;;;5078146;28;20107;-72
2022/03/19 08:20:29;;;;;;;20.90;6.60;;;4.00;99.90;;;;;;5077964;28;20020;-76
2022/03/19 08:22:57;;;;;;;20.58;6.47;;;4.10;99.90;;;;;;5078052;28;20048;-79
2022/03/19 08:25:24;;;;;;;14.80;5.38;;;4.20;99.90;;;;;;5060355;28;20066;-79
2022/03/19 08:27:51;;;;;;;15.68;5.85;;;4.20;99.90;;;;;;5078179;28;20016;-79
2022/03/19 08:30:20;;;;;;;20.42;5.13;;;4.30;99.90;;;;;;5077908;28;20096;-79
2022/03/19 08:32:48;;;;;;;22.17;5.82;;;4.40;99.90;;;;;;5077754;28;20435;-79
2022/03/19 08:35:19;;;;;;;21.48;4.47;;;4.50;99.90;;;;;;5078078;28;20035;-79
2022/03/19 08:37:47;;;;;;;21.80;5.50;;;4.50;99.90;;;;;;5078905;28;20416;-79
2022/03/19 08:40:19;;;;;;;21.15;5.03;;;4.60;99.90;;;;;;5060827;28;20055;-79
2022/03/19 08:42:52;;;;;;;20.30;4.68;;;4.70;99.90;;;;;;5060772;28;20021;-79
2022/03/19 08:45:24;;;;;;;20.67;5.88;;;4.70;99.90;;;;;;5078641;28;20032;-79
2022/03/19 08:47:51;;;;;;;14.13;4.75;;;4.80;99.90;;;;;;5060631;28;20027;-79
2022/03/19 08:50:21;;;;;;;19.92;5.05;;;4.90;99.90;;;;;;5078648;28;20016;-79
2022/03/19 08:52:56;;;;;;;22.08;6.15;;;5.00;99.90;;;;;;5078361;28;20048;-81
2022/03/19 08:55:24;;;;;;;18.67;5.47;;;5.00;99.90;;;;;;5078339;28;20035;-80
2022/03/19 08:57:51;;;;;;;11.80;5.13;;;5.10;99.90;;;;;;5059541;28;20029;-80
2022/03/19 09:00:19;;;;;;;17.05;4.93;;;5.10;99.90;;;;;;5077510;28;20028;-80
2022/03/19 09:02:46;;;;;;;16.58;4.35;;;5.20;99.90;;;;;;5077165;28;20107;-80
2022/03/19 09:05:14;;;;;;;15.60;4.63;;;5.20;99.90;;;;;;5058642;28;20359;-80
2022/03/19 09:07:41;;;;;;;18.40;5.78;;;5.30;99.90;;;;;;5077305;28;20105;-80
2022/03/19 09:10:09;;;;;;;19.13;4.70;;;5.30;99.90;;;;;;5075316;28;20032;-80
2022/03/19 09:12:39;;;;;;;16.92;5.15;;;5.40;99.90;;;;;;5077370;28;20028;-80
2022/03/19 09:15:09;;;;;;;16.33;4.65;;;5.40;99.90;;;;;;5076975;28;20439;-80
2022/03/19 09:17:37;;;;;;;11.82;3.30;;;5.50;99.90;;;;;;5077045;28;20119;-79
2022/03/19 09:20:05;;;;;;;13.35;4.43;;;5.50;99.90;;;;;;5059930;28;20027;-77
2022/03/19 09:22:33;;;;;;;12.05;3.65;;;5.60;99.90;;;;;;5077673;28;20041;-78
2022/03/19 09:25:00;;;;;;;10.98;3.90;;;5.60;99.90;;;;;;5059972;28;20107;-77
2022/03/19 09:27:27;;;;;;;11.48;3.80;;;5.60;99.90;;;;;;5078011;28;20099;-79
2022/03/19 09:29:54;;;;;;;18.38;3.83;;;5.60;99.90;;;;;;5059921;28;20052;-74
2022/03/19 09:32:22;;;;;;;14.82;3.95;;;5.70;99.90;;;;;;5077787;28;20024;-75
2022/03/19 09:34:51;;;;;;;13.25;3.63;;;5.70;99.90;;;;;;5077604;28;20028;-72
2022/03/19 09:37:18;;;;;;;16.23;4.20;;;5.80;99.90;;;;;;5077206;28;20027;-78
2022/03/19 09:39:46;;;;;;;11.07;3.33;;;5.80;99.90;;;;;;5058831;28;20531;-76
2022/03/19 09:42:14;;;;;;;12.65;4.40;;;5.90;99.90;;;;;;5077120;28;20052;-80
2022/03/19 09:44:46;;;;;;;14.38;3.47;;;5.90;99.90;;;;;;5076556;28;20017;-79
2022/03/19 09:47:14;;;;;;;12.50;3.60;;;6.00;99.90;;;;;;5076491;28;20016;-81
2022/03/19 09:49:42;;;;;;;11.38;3.63;;;6.10;99.90;;;;;;5076775;28;20031;-72
2022/03/19 09:52:13;;;;;;;13.35;4.25;;;6.20;99.90;;;;;;5076677;28;20081;-73
2022/03/19 09:54:40;;;;;;;12.25;3.53;;;6.20;99.90;;;;;;5077023;28;20028;-72
2022/03/19 09:57:08;;;;;;;20.15;5.93;;;6.20;99.90;;;;;;5059271;28;20035;-69
2022/03/19 09:59:36;;;;;;;14.52;4.40;;;6.20;99.90;;;;;;5077182;28;20025;-74
2022/03/19 10:02:11;;;;;;;16.75;3.47;;;6.30;99.90;;;;;;5077441;28;20016;-76
2022/03/19 10:04:40;;;;;;;12.88;3.63;;;6.30;99.90;;;;;;5059432;28;20107;-74
2022/03/19 10:09:56;;;;;;;8.15;2.60;;;6.40;99.90;;;;;;5077345;28;20078;-75
2022/03/19 10:12:31;;;;;;;6.95;2.70;;;6.40;99.90;;;;;;5077708;28;20098;-75
2022/03/19 10:14:59;;;;;;;7.22;2.47;;;6.50;99.90;;;;;;5077188;28;20033;-75
2022/03/19 10:17:31;;;;;;;16.23;3.95;;;6.50;99.90;;;;;;5077239;28;20055;-75
2022/03/19 10:20:01;;;;;;;9.65;3.20;;;6.50;99.90;;;;;;5076582;28;20434;-76
2022/03/19 10:22:30;;;;;;;10.60;2.63;;;6.60;99.90;;;;;;5076317;28;20055;-76
2022/03/19 10:25:08;;;;;;;15.05;3.05;;;6.60;99.90;;;;;;5077133;28;20427;-76
2022/03/19 10:27:41;;;;;;;10.15;2.60;;;6.60;99.90;;;;;;5058348;28;20409;-75
2022/03/19 10:30:19;;;;;;;14.52;2.95;;;6.60;99.90;;;;;;5076110;28;20055;-76
2022/03/19 10:32:53;;;;;;;9.50;2.20;;;6.70;99.90;;;;;;5075976;28;20032;-79
2022/03/19 10:35:33;;;;;;;6.63;2.78;;;6.70;99.90;;;;;;5076031;28;20408;-79
2022/03/19 10:38:03;;;;;;;5.13;1.95;;;6.80;99.90;;;;;;5077011;28;20324;-79
2022/03/19 10:40:39;;;;;;;7.63;2.80;;;6.80;99.90;;;;;;5062079;28;20027;-79
2022/03/19 10:43:08;;;;;;;9.82;2.72;;;6.90;99.90;;;;;;5080668;28;20047;-79
2022/03/19 10:45:47;;;;;;;7.75;2.28;;;6.90;99.90;;;;;;5081332;28;20052;-78
2022/03/19 10:48:26;;;;;;;9.73;3.63;;;7.00;99.90;;;;;;5080933;28;20487;-79
2022/03/19 10:50:54;;;;;;;6.72;2.33;;;6.90;99.90;;;;;;5080922;28;20063;-77
2022/03/19 10:53:22;;;;;;;12.52;2.38;;;7.00;99.90;;;;;;5062753;28;20021;-76
2022/03/19 10:55:51;;;;;;;7.18;2.20;;;7.00;99.90;;;;;;5080954;28;20016;-76
2022/03/19 10:58:19;;;;;;;10.10;2.10;;;7.10;99.90;;;;;;5080730;28;20033;-76
2022/03/19 11:00:51;;;;;;;6.15;2.38;;;7.10;99.90;;;;;;5080660;28;20347;-76
2022/03/19 11:03:28;;;;;;;10.27;2.00;;;7.10;99.90;;;;;;5061580;28;20024;-77
2022/03/19 11:06:02;;;;;;;7.53;2.55;;;7.20;99.90;;;;;;5079821;28;20028;-76
2022/03/19 11:08:30;;;;;;;6.88;2.25;;;7.30;99.90;;;;;;5061655;28;20024;-76
2022/03/19 11:10:59;;;;;;;7.75;2.47;;;7.40;99.90;;;;;;5079376;28;20052;-76
2022/03/19 11:13:33;;;;;;;10.32;3.05;;;7.40;99.90;;;;;;5079299;28;20034;-76
2022/03/19 11:16:02;;;;;;;9.00;1.93;;;7.50;99.90;;;;;;5079396;28;20021;-76
2022/03/19 11:18:29;;;;;;;12.23;2.65;;;7.50;99.90;;;;;;5079562;28;20408;-80
2022/03/19 11:20:58;;;;;;;10.25;2.00;;;7.60;99.90;;;;;;5080007;28;20361;-77
2022/03/19 11:23:34;;;;;;;11.07;4.00;;;7.70;99.90;;;;;;5087209;28;20048;-78
2022/03/19 11:26:03;;;;;;;7.22;1.70;;;7.80;99.90;;;;;;5100810;28;20421;-76
2022/03/19 11:28:31;;;;;;;10.57;2.88;;;7.90;99.90;;;;;;5100279;28;20027;-70
2022/03/19 11:31:08;;;;;;;8.05;1.80;;;8.00;99.90;;;;;;5100285;28;20420;-70
2022/03/19 11:33:38;;;;;;;9.35;2.00;;;8.10;99.90;;;;;;5100138;28;20047;-69
2022/03/19 11:36:10;;;;;;;9.63;2.20;;;8.20;99.90;;;;;;5100060;28;20030;-69
2022/03/19 11:38:52;;;;;;;7.35;2.35;;;8.20;99.90;;;;;;5100948;28;20309;-69
2022/03/19 11:41:26;;;;;;;9.75;2.22;;;8.30;99.90;;;;;;5100121;28;20023;-68
2022/03/19 11:44:18;;;;;;;7.45;1.63;;;8.30;99.90;;;;;;5099705;28;20020;-71
2022/03/19 11:47:03;;;;;;;8.38;1.95;;;8.50;99.90;;;;;;5099225;28;20016;-70
2022/03/19 11:49:48;;;;;;;7.82;1.58;;;8.50;99.90;;;;;;5098813;28;20475;-69
2022/03/19 11:52:46;;;;;;;5.38;1.17;;;8.60;99.90;;;;;;5099419;28;20073;-76
2022/03/19 11:55:26;;;;;;;3.42;1.30;;;8.80;99.90;;;;;;5073983;28;20111;-75
2022/03/19 11:57:58;;;;;;;7.88;2.08;;;8.80;99.90;;;;;;5099296;28;20031;-74
2022/03/19 12:00:29;;;;;;;6.53;2.00;;;8.90;99.90;;;;;;5098504;28;20106;-74
2022/03/19 12:03:13;;;;;;;4.25;2.20;;;8.90;99.90;;;;;;5097507;28;20024;-75
2022/03/19 12:05:46;;;;;;;8.38;2.15;;;9.00;99.90;;;;;;5098933;28;20100;-74
2022/03/19 12:08:18;;;;;;;4.53;1.55;;;9.10;99.70;;;;;;5099744;28;20062;-73
2022/03/19 12:11:01;;;;;;;60.22;33.00;;;9.20;98.20;;;;;;5098408;28;20024;-73
2022/03/19 12:13:28;;;;;;;6.13;1.52;;;9.30;98.30;;;;;;5099739;28;20365;-73
2022/03/19 12:16:02;;;;;;;6.95;1.33;;;9.40;96.10;;;;;;5098507;28;20305;-73
2022/03/19 12:18:34;;;;;;;8.48;1.52;;;9.50;96.50;;;;;;5099195;28;20028;-73
2022/03/19 12:21:10;;;;;;;6.03;1.33;;;9.70;97.20;;;;;;5099840;28;20404;-73
2022/03/19 12:24:14;;;;;;;8.73;1.50;;;9.90;96.80;;;;;;5083394;28;20102;-73
2022/03/19 12:26:49;;;;;;;7.15;1.10;;;10.10;95.90;;;;;;5062591;28;20055;-75
2022/03/19 12:29:18;;;;;;;3.92;1.02;;;10.10;94.10;;;;;;5078161;28;20077;-73
2022/03/19 12:31:50;;;;;;;6.32;1.35;;;10.20;93.10;;;;;;5077822;28;20024;-74
2022/03/19 12:34:23;;;;;;;6.22;1.58;;;10.20;91.10;;;;;;5077740;28;20021;-74
2022/03/19 12:36:52;;;;;;;5.47;1.85;;;10.20;90.30;;;;;;5060145;28;20032;-73
2022/03/19 12:39:19;;;;;;;4.65;0.90;;;10.20;88.60;;;;;;5059723;28;20412;-74
2022/03/19 12:41:47;;;;;;;9.57;1.30;;;10.40;88.80;;;;;;5059836;28;20051;-74
2022/03/19 12:44:21;;;;;;;7.85;1.38;;;10.60;87.40;;;;;;5059778;28;20021;-74
2022/03/19 12:46:56;;;;;;;4.90;1.17;;;10.90;86.80;;;;;;5078137;28;20046;-73
2022/03/19 12:49:24;;;;;;;4.65;1.15;;;11.20;87.30;;;;;;5078097;28;20117;-74
2022/03/19 12:51:52;;;;;;;4.70;1.08;;;11.40;84.60;;;;;;5060543;28;20020;-73
2022/03/19 12:54:25;;;;;;;6.45;1.17;;;11.50;82.00;;;;;;5060524;28;20035;-73
2022/03/19 12:56:56;;;;;;;4.28;1.10;;;11.60;81.20;;;;;;5078678;28;20172;-73
2022/03/19 12:59:25;;;;;;;5.32;1.27;;;11.60;78.40;;;;;;5078638;28;20355;-73
2022/03/19 13:01:54;;;;;;;2.67;0.98;;;11.50;78.30;;;;;;5077619;28;20025;-73
2022/03/19 13:04:26;;;;;;;5.00;1.00;;;11.40;76.20;;;;;;5078541;28;20026;-73
2022/03/19 13:06:54;;;;;;;3.08;0.95;;;11.30;74.60;;;;;;5078085;28;20037;-74
2022/03/19 13:09:37;;;;;;;3.65;0.98;;;11.30;74.90;;;;;;5077733;28;20024;-79